sensor_id;sensor_type;location;lat;lon;timestamp;temperature;humidity
53272;DHT22;39160;48.580;7.756;2023-03-11T00:01:12;5.70;99.00
53272;DHT22;39160;48.580;7.756;2023-03-11T00:06:02;5.50;99.10
53272;DHT22;39160;48.580;7.756;2023-03-11T00:10:55;5.50;99.20
53272;DHT22;39160;48.580;7.756;2023-03-11T00:15:50;5.40;99.20
53272;DHT22;39160;48.580;7.756;2023-03-11T00:20:42;5.40;99.20
53272;DHT22;39160;48.580;7.756;2023-03-11T00:25:35;5.30;99.30
53272;DHT22;39160;48.580;7.756;2023-03-11T00:30:27;5.30;99.40
53272;DHT22;39160;48.580;7.756;2023-03-11T00:35:22;5.40;99.40
53272;DHT22;39160;48.580;7.756;2023-03-11T00:40:16;5.30;99.30
53272;DHT22;39160;48.580;7.756;2023-03-11T00:45:07;5.30;99.50
53272;DHT22;39160;48.580;7.756;2023-03-11T00:49:57;5.30;99.60
53272;DHT22;39160;48.580;7.756;2023-03-11T00:54:48;5.20;99.60
53272;DHT22;39160;48.580;7.756;2023-03-11T00:59:39;5.30;99.60
53272;DHT22;39160;48.580;7.756;2023-03-11T01:04:29;5.20;99.80
53272;DHT22;39160;48.580;7.756;2023-03-11T01:09:20;5.20;99.70
53272;DHT22;39160;48.580;7.756;2023-03-11T01:14:11;5.10;99.80
53272;DHT22;39160;48.580;7.756;2023-03-11T01:19:02;5.10;99.90
53272;DHT22;39160;48.580;7.756;2023-03-11T01:23:52;5.10;99.90
53272;DHT22;39160;48.580;7.756;2023-03-11T01:28:43;5.00;99.90
53272;DHT22;39160;48.580;7.756;2023-03-11T01:33:34;5.00;99.90
53272;DHT22;39160;48.580;7.756;2023-03-11T01:38:24;5.00;99.90
53272;DHT22;39160;48.580;7.756;2023-03-11T01:48:31;5.00;99.90
53272;DHT22;39160;48.580;7.756;2023-03-11T01:53:22;4.90;99.90
53272;DHT22;39160;48.580;7.756;2023-03-11T01:58:17;4.90;99.90
53272;DHT22;39160;48.580;7.756;2023-03-11T02:03:48;4.90;99.90
53272;DHT22;39160;48.580;7.756;2023-03-11T02:08:40;4.80;99.90
53272;DHT22;39160;48.580;7.756;2023-03-11T02:13:32;4.80;99.90
53272;DHT22;39160;48.580;7.756;2023-03-11T02:18:24;4.70;99.90
53272;DHT22;39160;48.580;7.756;2023-03-11T02:23:16;4.60;99.90
53272;DHT22;39160;48.580;7.756;2023-03-11T02:28:11;4.50;99.90
53272;DHT22;39160;48.580;7.756;2023-03-11T02:33:02;4.50;99.90
53272;DHT22;39160;48.580;7.756;2023-03-11T02:37:53;4.40;99.90
53272;DHT22;39160;48.580;7.756;2023-03-11T02:42:43;4.40;99.90
53272;DHT22;39160;48.580;7.756;2023-03-11T02:47:35;4.50;99.90
53272;DHT22;39160;48.580;7.756;2023-03-11T02:52:28;4.60;99.90
53272;DHT22;39160;48.580;7.756;2023-03-11T02:57:18;4.60;99.90
53272;DHT22;39160;48.580;7.756;2023-03-11T03:02:09;4.60;99.90
53272;DHT22;39160;48.580;7.756;2023-03-11T03:06:59;4.70;99.90
53272;DHT22;39160;48.580;7.756;2023-03-11T03:11:50;4.60;99.90
53272;DHT22;39160;48.580;7.756;2023-03-11T03:16:41;4.50;99.90
53272;DHT22;39160;48.580;7.756;2023-03-11T03:21:31;4.30;99.90
53272;DHT22;39160;48.580;7.756;2023-03-11T03:26:22;4.40;99.90
53272;DHT22;39160;48.580;7.756;2023-03-11T03:31:13;4.40;99.90
53272;DHT22;39160;48.580;7.756;2023-03-11T03:36:08;4.30;99.90
53272;DHT22;39160;48.580;7.756;2023-03-11T03:40:59;4.30;99.90
53272;DHT22;39160;48.580;7.756;2023-03-11T03:46:03;4.30;99.90
53272;DHT22;39160;48.580;7.756;2023-03-11T03:50:54;4.20;99.90
53272;DHT22;39160;48.580;7.756;2023-03-11T03:55:44;4.20;99.90
53272;DHT22;39160;48.580;7.756;2023-03-11T04:00:35;4.10;99.90
53272;DHT22;39160;48.580;7.756;2023-03-11T04:05:27;4.10;99.90
53272;DHT22;39160;48.580;7.756;2023-03-11T04:10:18;4.10;99.90
53272;DHT22;39160;48.580;7.756;2023-03-11T04:15:09;4.00;99.90
53272;DHT22;39160;48.580;7.756;2023-03-11T04:20:00;4.00;99.90
53272;DHT22;39160;48.580;7.756;2023-03-11T04:24:50;3.90;99.90
53272;DHT22;39160;48.580;7.756;2023-03-11T04:29:41;3.90;99.90
53272;DHT22;39160;48.580;7.756;2023-03-11T04:34:31;3.90;99.90
53272;DHT22;39160;48.580;7.756;2023-03-11T04:39:22;3.80;99.90
53272;DHT22;39160;48.580;7.756;2023-03-11T04:44:13;3.80;99.90
53272;DHT22;39160;48.580;7.756;2023-03-11T04:49:03;3.90;99.90
53272;DHT22;39160;48.580;7.756;2023-03-11T04:53:54;3.80;99.90
53272;DHT22;39160;48.580;7.756;2023-03-11T04:58:45;3.70;99.90
53272;DHT22;39160;48.580;7.756;2023-03-11T05:03:35;3.80;99.90
53272;DHT22;39160;48.580;7.756;2023-03-11T05:08:26;3.80;99.90
53272;DHT22;39160;48.580;7.756;2023-03-11T05:13:17;3.70;99.90
53272;DHT22;39160;48.580;7.756;2023-03-11T05:18:08;3.70;99.90
53272;DHT22;39160;48.580;7.756;2023-03-11T05:22:59;3.70;99.90
53272;DHT22;39160;48.580;7.756;2023-03-11T05:27:49;3.80;99.90
53272;DHT22;39160;48.580;7.756;2023-03-11T05:32:40;3.70;99.90
53272;DHT22;39160;48.580;7.756;2023-03-11T05:37:31;3.70;99.90
53272;DHT22;39160;48.580;7.756;2023-03-11T05:42:21;3.70;99.90
53272;DHT22;39160;48.580;7.756;2023-03-11T05:47:12;3.80;99.90
53272;DHT22;39160;48.580;7.756;2023-03-11T05:52:03;3.70;99.90
53272;DHT22;39160;48.580;7.756;2023-03-11T05:56:53;3.60;99.90
53272;DHT22;39160;48.580;7.756;2023-03-11T06:01:45;3.70;99.90
53272;DHT22;39160;48.580;7.756;2023-03-11T06:06:37;3.80;99.90
53272;DHT22;39160;48.580;7.756;2023-03-11T06:11:27;3.90;99.90
53272;DHT22;39160;48.580;7.756;2023-03-11T06:16:18;3.90;99.90
53272;DHT22;39160;48.580;7.756;2023-03-11T06:21:17;3.80;99.90
53272;DHT22;39160;48.580;7.756;2023-03-11T06:26:11;3.80;99.90
53272;DHT22;39160;48.580;7.756;2023-03-11T06:31:11;3.90;99.90
53272;DHT22;39160;48.580;7.756;2023-03-11T06:36:04;3.90;99.90
53272;DHT22;39160;48.580;7.756;2023-03-11T06:40:58;4.00;99.90
53272;DHT22;39160;48.580;7.756;2023-03-11T06:45:49;4.10;99.90
53272;DHT22;39160;48.580;7.756;2023-03-11T06:50:40;4.00;99.90
53272;DHT22;39160;48.580;7.756;2023-03-11T06:55:31;4.00;99.90
53272;DHT22;39160;48.580;7.756;2023-03-11T07:00:21;4.00;99.90
53272;DHT22;39160;48.580;7.756;2023-03-11T07:05:12;4.00;99.90
53272;DHT22;39160;48.580;7.756;2023-03-11T07:10:04;4.00;99.90
53272;DHT22;39160;48.580;7.756;2023-03-11T07:14:55;4.00;99.90
53272;DHT22;39160;48.580;7.756;2023-03-11T07:19:46;4.10;99.90
53272;DHT22;39160;48.580;7.756;2023-03-11T07:24:37;4.20;99.90
53272;DHT22;39160;48.580;7.756;2023-03-11T07:29:27;4.40;99.90
53272;DHT22;39160;48.580;7.756;2023-03-11T07:34:18;4.50;99.90
53272;DHT22;39160;48.580;7.756;2023-03-11T07:39:14;4.50;99.90
53272;DHT22;39160;48.580;7.756;2023-03-11T07:44:05;4.60;99.90
53272;DHT22;39160;48.580;7.756;2023-03-11T07:48:56;4.80;99.90
53272;DHT22;39160;48.580;7.756;2023-03-11T07:53:48;4.70;99.90
53272;DHT22;39160;48.580;7.756;2023-03-11T07:58:38;4.50;99.90
53272;DHT22;39160;48.580;7.756;2023-03-11T08:03:29;4.40;99.90
53272;DHT22;39160;48.580;7.756;2023-03-11T08:08:20;4.50;99.90
53272;DHT22;39160;48.580;7.756;2023-03-11T08:13:10;4.60;99.90
53272;DHT22;39160;48.580;7.756;2023-03-11T08:18:01;4.40;99.90
53272;DHT22;39160;48.580;7.756;2023-03-11T08:22:52;4.50;99.90
53272;DHT22;39160;48.580;7.756;2023-03-11T08:27:42;4.40;99.70
53272;DHT22;39160;48.580;7.756;2023-03-11T08:32:33;4.50;99.70
53272;DHT22;39160;48.580;7.756;2023-03-11T08:37:24;4.60;99.60
53272;DHT22;39160;48.580;7.756;2023-03-11T08:42:16;4.70;99.30
53272;DHT22;39160;48.580;7.756;2023-03-11T08:47:06;4.80;99.50
53272;DHT22;39160;48.580;7.756;2023-03-11T08:51:57;4.90;99.30
53272;DHT22;39160;48.580;7.756;2023-03-11T08:56:48;5.10;99.50
53272;DHT22;39160;48.580;7.756;2023-03-11T09:01:38;5.10;99.20
53272;DHT22;39160;48.580;7.756;2023-03-11T09:06:29;5.10;99.00
53272;DHT22;39160;48.580;7.756;2023-03-11T09:11:20;5.20;98.90
53272;DHT22;39160;48.580;7.756;2023-03-11T09:16:14;5.20;98.90
53272;DHT22;39160;48.580;7.756;2023-03-11T09:21:05;5.50;99.10
53272;DHT22;39160;48.580;7.756;2023-03-11T09:25:56;5.80;98.70
53272;DHT22;39160;48.580;7.756;2023-03-11T09:30:46;6.00;98.60
53272;DHT22;39160;48.580;7.756;2023-03-11T09:35:38;6.00;98.50
53272;DHT22;39160;48.580;7.756;2023-03-11T09:40:45;5.90;98.50
53272;DHT22;39160;48.580;7.756;2023-03-11T09:45:44;5.70;98.50
53272;DHT22;39160;48.580;7.756;2023-03-11T09:55:53;6.20;98.20
53272;DHT22;39160;48.580;7.756;2023-03-11T10:00:44;6.70;98.10
53272;DHT22;39160;48.580;7.756;2023-03-11T10:05:36;6.80;98.10
53272;DHT22;39160;48.580;7.756;2023-03-11T10:10:32;6.60;98.00
53272;DHT22;39160;48.580;7.756;2023-03-11T10:15:30;6.70;97.90
53272;DHT22;39160;48.580;7.756;2023-03-11T10:20:40;6.80;97.80
53272;DHT22;39160;48.580;7.756;2023-03-11T10:31:13;6.30;97.40
53272;DHT22;39160;48.580;7.756;2023-03-11T10:36:14;6.40;97.10
53272;DHT22;39160;48.580;7.756;2023-03-11T10:46:26;6.00;97.00
53272;DHT22;39160;48.580;7.756;2023-03-11T10:51:23;6.10;96.70
53272;DHT22;39160;48.580;7.756;2023-03-11T10:56:28;6.40;96.50
53272;DHT22;39160;48.580;7.756;2023-03-11T11:01:19;6.60;96.30
53272;DHT22;39160;48.580;7.756;2023-03-11T11:06:49;6.80;96.20
53272;DHT22;39160;48.580;7.756;2023-03-11T11:11:40;7.10;95.70
53272;DHT22;39160;48.580;7.756;2023-03-11T11:16:32;7.20;96.10
53272;DHT22;39160;48.580;7.756;2023-03-11T11:21:31;7.30;95.80
53272;DHT22;39160;48.580;7.756;2023-03-11T11:26:24;7.20;95.60
53272;DHT22;39160;48.580;7.756;2023-03-11T11:31:23;7.00;95.40
53272;DHT22;39160;48.580;7.756;2023-03-11T11:36:15;7.20;95.30
53272;DHT22;39160;48.580;7.756;2023-03-11T11:41:08;7.10;95.20
53272;DHT22;39160;48.580;7.756;2023-03-11T11:46:04;7.20;94.80
53272;DHT22;39160;48.580;7.756;2023-03-11T11:51:00;7.10;94.50
53272;DHT22;39160;48.580;7.756;2023-03-11T11:55:52;7.10;94.50
53272;DHT22;39160;48.580;7.756;2023-03-11T12:01:06;7.00;94.10
53272;DHT22;39160;48.580;7.756;2023-03-11T12:11:25;7.30;93.40
53272;DHT22;39160;48.580;7.756;2023-03-11T12:26:37;8.00;92.50
53272;DHT22;39160;48.580;7.756;2023-03-11T12:31:35;8.30;92.50
53272;DHT22;39160;48.580;7.756;2023-03-11T12:41:29;8.40;92.20
53272;DHT22;39160;48.580;7.756;2023-03-11T13:02:57;9.20;91.80
53272;DHT22;39160;48.580;7.756;2023-03-11T13:12:50;9.80;91.80
53272;DHT22;39160;48.580;7.756;2023-03-11T13:17:41;9.90;91.40
53272;DHT22;39160;48.580;7.756;2023-03-11T13:27:44;10.50;92.00
53272;DHT22;39160;48.580;7.756;2023-03-11T13:42:54;12.40;92.20
53272;DHT22;39160;48.580;7.756;2023-03-11T13:47:47;12.40;93.10
53272;DHT22;39160;48.580;7.756;2023-03-11T13:52:45;13.00;93.00
53272;DHT22;39160;48.580;7.756;2023-03-11T13:57:37;13.60;92.00
53272;DHT22;39160;48.580;7.756;2023-03-11T14:02:28;14.30;91.40
53272;DHT22;39160;48.580;7.756;2023-03-11T14:07:28;14.20;90.50
53272;DHT22;39160;48.580;7.756;2023-03-11T14:12:18;14.70;88.90
53272;DHT22;39160;48.580;7.756;2023-03-11T14:17:14;14.10;87.90
53272;DHT22;39160;48.580;7.756;2023-03-11T14:22:09;12.70;85.90
53272;DHT22;39160;48.580;7.756;2023-03-11T14:27:02;13.30;85.10
53272;DHT22;39160;48.580;7.756;2023-03-11T14:31:54;13.90;83.40
53272;DHT22;39160;48.580;7.756;2023-03-11T14:36:46;14.00;82.50
53272;DHT22;39160;48.580;7.756;2023-03-11T14:41:41;14.30;81.60
53272;DHT22;39160;48.580;7.756;2023-03-11T14:46:32;13.00;80.90
53272;DHT22;39160;48.580;7.756;2023-03-11T14:51:26;11.80;80.50
53272;DHT22;39160;48.580;7.756;2023-03-11T14:56:20;11.10;79.70
53272;DHT22;39160;48.580;7.756;2023-03-11T15:01:21;10.40;79.40
53272;DHT22;39160;48.580;7.756;2023-03-11T15:06:18;10.10;78.60
53272;DHT22;39160;48.580;7.756;2023-03-11T15:16:02;9.70;78.00
53272;DHT22;39160;48.580;7.756;2023-03-11T15:25:55;9.30;77.70
53272;DHT22;39160;48.580;7.756;2023-03-11T15:30:46;9.30;77.90
53272;DHT22;39160;48.580;7.756;2023-03-11T15:35:46;9.30;77.70
53272;DHT22;39160;48.580;7.756;2023-03-11T15:40:37;9.40;77.60
53272;DHT22;39160;48.580;7.756;2023-03-11T15:45:28;9.40;77.50
53272;DHT22;39160;48.580;7.756;2023-03-11T15:50:22;9.20;77.60
53272;DHT22;39160;48.580;7.756;2023-03-11T15:55:13;9.30;77.70
53272;DHT22;39160;48.580;7.756;2023-03-11T16:00:13;9.70;78.00
53272;DHT22;39160;48.580;7.756;2023-03-11T16:05:14;9.50;78.10
53272;DHT22;39160;48.580;7.756;2023-03-11T16:10:07;9.50;78.20
53272;DHT22;39160;48.580;7.756;2023-03-11T16:14:58;9.50;78.60
53272;DHT22;39160;48.580;7.756;2023-03-11T16:19:49;9.30;78.60
53272;DHT22;39160;48.580;7.756;2023-03-11T16:24:39;9.20;78.90
53272;DHT22;39160;48.580;7.756;2023-03-11T16:29:30;9.20;79.10
53272;DHT22;39160;48.580;7.756;2023-03-11T16:34:22;9.10;79.00
53272;DHT22;39160;48.580;7.756;2023-03-11T16:39:13;9.00;79.10
53272;DHT22;39160;48.580;7.756;2023-03-11T16:44:04;8.90;79.10
53272;DHT22;39160;48.580;7.756;2023-03-11T16:48:54;8.90;79.30
53272;DHT22;39160;48.580;7.756;2023-03-11T16:53:45;8.90;79.40
53272;DHT22;39160;48.580;7.756;2023-03-11T16:58:36;8.90;79.40
53272;DHT22;39160;48.580;7.756;2023-03-11T17:03:26;8.80;79.40
53272;DHT22;39160;48.580;7.756;2023-03-11T17:08:17;8.70;79.40
53272;DHT22;39160;48.580;7.756;2023-03-11T17:13:09;8.70;79.50
53272;DHT22;39160;48.580;7.756;2023-03-11T17:18:00;8.70;79.50
53272;DHT22;39160;48.580;7.756;2023-03-11T17:22:51;8.70;79.50
53272;DHT22;39160;48.580;7.756;2023-03-11T17:27:42;8.60;79.40
53272;DHT22;39160;48.580;7.756;2023-03-11T17:32:32;8.50;79.40
53272;DHT22;39160;48.580;7.756;2023-03-11T17:37:24;8.50;79.50
53272;DHT22;39160;48.580;7.756;2023-03-11T17:42:14;8.40;79.50
53272;DHT22;39160;48.580;7.756;2023-03-11T17:47:05;8.30;79.70
53272;DHT22;39160;48.580;7.756;2023-03-11T17:51:56;8.10;79.90
53272;DHT22;39160;48.580;7.756;2023-03-11T17:56:46;8.00;80.00
53272;DHT22;39160;48.580;7.756;2023-03-11T18:01:37;7.90;80.60
53272;DHT22;39160;48.580;7.756;2023-03-11T18:06:28;7.90;80.00
53272;DHT22;39160;48.580;7.756;2023-03-11T18:11:21;7.90;80.00
53272;DHT22;39160;48.580;7.756;2023-03-11T18:16:18;7.90;80.10
53272;DHT22;39160;48.580;7.756;2023-03-11T18:21:21;8.00;80.10
53272;DHT22;39160;48.580;7.756;2023-03-11T18:26:14;7.90;80.20
53272;DHT22;39160;48.580;7.756;2023-03-11T18:31:10;7.90;80.30
53272;DHT22;39160;48.580;7.756;2023-03-11T18:36:27;7.80;80.40
53272;DHT22;39160;48.580;7.756;2023-03-11T18:41:18;7.60;80.40
53272;DHT22;39160;48.580;7.756;2023-03-11T18:46:15;7.60;80.50
53272;DHT22;39160;48.580;7.756;2023-03-11T18:51:06;7.50;80.50
53272;DHT22;39160;48.580;7.756;2023-03-11T18:56:03;7.40;80.60
53272;DHT22;39160;48.580;7.756;2023-03-11T19:00:54;7.30;80.70
53272;DHT22;39160;48.580;7.756;2023-03-11T19:05:48;7.30;80.80
53272;DHT22;39160;48.580;7.756;2023-03-11T19:10:40;7.20;80.80
53272;DHT22;39160;48.580;7.756;2023-03-11T19:15:31;7.20;81.10
53272;DHT22;39160;48.580;7.756;2023-03-11T19:20:22;7.20;81.10
53272;DHT22;39160;48.580;7.756;2023-03-11T19:25:15;7.20;81.10
53272;DHT22;39160;48.580;7.756;2023-03-11T19:30:06;7.20;81.30
53272;DHT22;39160;48.580;7.756;2023-03-11T19:34:57;7.10;81.40
53272;DHT22;39160;48.580;7.756;2023-03-11T19:39:47;7.00;81.40
53272;DHT22;39160;48.580;7.756;2023-03-11T19:44:38;7.10;81.50
53272;DHT22;39160;48.580;7.756;2023-03-11T19:49:29;7.10;81.60
53272;DHT22;39160;48.580;7.756;2023-03-11T19:54:19;6.90;81.80
53272;DHT22;39160;48.580;7.756;2023-03-11T19:59:10;6.70;82.30
53272;DHT22;39160;48.580;7.756;2023-03-11T20:04:01;6.70;82.50
53272;DHT22;39160;48.580;7.756;2023-03-11T20:08:51;6.50;82.90
53272;DHT22;39160;48.580;7.756;2023-03-11T20:13:42;6.40;83.60
53272;DHT22;39160;48.580;7.756;2023-03-11T20:18:33;6.30;84.20
53272;DHT22;39160;48.580;7.756;2023-03-11T20:23:24;6.30;84.40
53272;DHT22;39160;48.580;7.756;2023-03-11T20:28:14;6.20;84.90
53272;DHT22;39160;48.580;7.756;2023-03-11T20:33:06;6.00;85.80
53272;DHT22;39160;48.580;7.756;2023-03-11T20:37:57;5.90;86.50
53272;DHT22;39160;48.580;7.756;2023-03-11T20:42:48;5.80;87.10
53272;DHT22;39160;48.580;7.756;2023-03-11T20:47:39;5.80;87.20
53272;DHT22;39160;48.580;7.756;2023-03-11T20:52:32;5.80;87.30
53272;DHT22;39160;48.580;7.756;2023-03-11T20:57:25;5.70;87.90
53272;DHT22;39160;48.580;7.756;2023-03-11T21:02:15;5.60;88.20
53272;DHT22;39160;48.580;7.756;2023-03-11T21:07:06;5.70;88.60
53272;DHT22;39160;48.580;7.756;2023-03-11T21:11:57;5.60;88.70
53272;DHT22;39160;48.580;7.756;2023-03-11T21:16:48;5.70;88.90
53272;DHT22;39160;48.580;7.756;2023-03-11T21:21:39;5.80;88.60
53272;DHT22;39160;48.580;7.756;2023-03-11T21:26:30;5.70;88.60
53272;DHT22;39160;48.580;7.756;2023-03-11T21:31:22;5.70;88.60
53272;DHT22;39160;48.580;7.756;2023-03-11T21:36:14;5.70;88.90
53272;DHT22;39160;48.580;7.756;2023-03-11T21:41:25;5.70;88.80
53272;DHT22;39160;48.580;7.756;2023-03-11T21:46:19;5.60;88.90
53272;DHT22;39160;48.580;7.756;2023-03-11T21:51:10;5.60;89.00
53272;DHT22;39160;48.580;7.756;2023-03-11T21:56:01;5.50;89.20
53272;DHT22;39160;48.580;7.756;2023-03-11T22:00:53;5.50;89.20
53272;DHT22;39160;48.580;7.756;2023-03-11T22:05:43;5.50;89.40
53272;DHT22;39160;48.580;7.756;2023-03-11T22:10:34;5.50;89.40
53272;DHT22;39160;48.580;7.756;2023-03-11T22:15:24;5.50;89.50
53272;DHT22;39160;48.580;7.756;2023-03-11T22:20:15;5.40;89.70
53272;DHT22;39160;48.580;7.756;2023-03-11T22:25:07;5.40;89.80
53272;DHT22;39160;48.580;7.756;2023-03-11T22:29:57;5.40;89.80
53272;DHT22;39160;48.580;7.756;2023-03-11T22:34:48;5.40;90.00
53272;DHT22;39160;48.580;7.756;2023-03-11T22:39:39;5.40;90.10
53272;DHT22;39160;48.580;7.756;2023-03-11T22:44:29;5.50;90.20
53272;DHT22;39160;48.580;7.756;2023-03-11T22:49:20;5.50;90.20
53272;DHT22;39160;48.580;7.756;2023-03-11T22:54:11;5.50;90.30
53272;DHT22;39160;48.580;7.756;2023-03-11T22:59:01;5.40;90.40
53272;DHT22;39160;48.580;7.756;2023-03-11T23:03:52;5.40;90.40
53272;DHT22;39160;48.580;7.756;2023-03-11T23:08:43;5.40;90.50
53272;DHT22;39160;48.580;7.756;2023-03-11T23:13:35;5.30;90.50
53272;DHT22;39160;48.580;7.756;2023-03-11T23:18:26;5.30;90.50
53272;DHT22;39160;48.580;7.756;2023-03-11T23:23:16;5.50;90.50
53272;DHT22;39160;48.580;7.756;2023-03-11T23:28:07;5.40;90.40
53272;DHT22;39160;48.580;7.756;2023-03-11T23:32:58;5.30;90.60
53272;DHT22;39160;48.580;7.756;2023-03-11T23:37:50;5.10;90.50
53272;DHT22;39160;48.580;7.756;2023-03-11T23:42:40;5.10;90.60
53272;DHT22;39160;48.580;7.756;2023-03-11T23:47:31;5.00;90.70
53272;DHT22;39160;48.580;7.756;2023-03-11T23:52:22;5.00;90.70
53272;DHT22;39160;48.580;7.756;2023-03-11T23:57:12;5.00;90.80
